sensor_id;sensor_type;location;lat;lon;timestamp;P1;durP1;ratioP1;P2;durP2;ratioP2
65757;SDS011;52495;52.208;5.158;2023-04-24T00:00:28;1.10;;;1.00;;
65757;SDS011;52495;52.208;5.158;2023-04-24T00:02:56;2.45;;;1.10;;
65757;SDS011;52495;52.208;5.158;2023-04-24T00:05:23;1.67;;;0.80;;
65757;SDS011;52495;52.208;5.158;2023-04-24T00:07:52;1.00;;;0.80;;
65757;SDS011;52495;52.208;5.158;2023-04-24T00:10:19;0.93;;;0.70;;
65757;SDS011;52495;52.208;5.158;2023-04-24T00:12:46;2.00;;;1.10;;
65757;SDS011;52495;52.208;5.158;2023-04-24T00:15:13;3.00;;;1.52;;
65757;SDS011;52495;52.208;5.158;2023-04-24T00:17:39;2.00;;;1.60;;
65757;SDS011;52495;52.208;5.158;2023-04-24T00:20:07;2.00;;;1.38;;
65757;SDS011;52495;52.208;5.158;2023-04-24T00:22:35;2.05;;;1.30;;
65757;SDS011;52495;52.208;5.158;2023-04-24T00:25:04;1.15;;;0.80;;
65757;SDS011;52495;52.208;5.158;2023-04-24T00:27:32;0.82;;;0.65;;
65757;SDS011;52495;52.208;5.158;2023-04-24T00:30:00;1.75;;;0.85;;
65757;SDS011;52495;52.208;5.158;2023-04-24T00:32:27;2.00;;;1.20;;
65757;SDS011;52495;52.208;5.158;2023-04-24T00:34:54;1.63;;;1.40;;
65757;SDS011;52495;52.208;5.158;2023-04-24T00:37:21;2.47;;;1.70;;
65757;SDS011;52495;52.208;5.158;2023-04-24T00:39:48;5.47;;;2.00;;
65757;SDS011;52495;52.208;5.158;2023-04-24T00:42:16;3.47;;;2.05;;
65757;SDS011;52495;52.208;5.158;2023-04-24T00:44:43;3.10;;;2.50;;
65757;SDS011;52495;52.208;5.158;2023-04-24T00:47:10;4.70;;;2.67;;
65757;SDS011;52495;52.208;5.158;2023-04-24T00:49:39;6.03;;;2.72;;
65757;SDS011;52495;52.208;5.158;2023-04-24T00:52:05;3.95;;;2.53;;
65757;SDS011;52495;52.208;5.158;2023-04-24T00:54:34;3.65;;;2.53;;
65757;SDS011;52495;52.208;5.158;2023-04-24T00:57:01;5.03;;;2.75;;
65757;SDS011;52495;52.208;5.158;2023-04-24T00:59:30;3.95;;;1.90;;
65757;SDS011;52495;52.208;5.158;2023-04-24T01:01:57;2.55;;;2.00;;
65757;SDS011;52495;52.208;5.158;2023-04-24T01:04:24;1.95;;;1.65;;
65757;SDS011;52495;52.208;5.158;2023-04-24T01:06:52;2.72;;;1.60;;
65757;SDS011;52495;52.208;5.158;2023-04-24T01:09:21;3.30;;;1.60;;
65757;SDS011;52495;52.208;5.158;2023-04-24T01:11:49;2.97;;;1.23;;
65757;SDS011;52495;52.208;5.158;2023-04-24T01:14:16;3.63;;;1.20;;
65757;SDS011;52495;52.208;5.158;2023-04-24T01:16:45;4.35;;;1.10;;
65757;SDS011;52495;52.208;5.158;2023-04-24T01:19:11;4.00;;;1.10;;
65757;SDS011;52495;52.208;5.158;2023-04-24T01:21:41;4.05;;;1.58;;
65757;SDS011;52495;52.208;5.158;2023-04-24T01:24:10;2.10;;;1.15;;
65757;SDS011;52495;52.208;5.158;2023-04-24T01:26:38;2.78;;;1.15;;
65757;SDS011;52495;52.208;5.158;2023-04-24T01:29:05;3.03;;;1.27;;
65757;SDS011;52495;52.208;5.158;2023-04-24T01:31:32;2.50;;;1.60;;
65757;SDS011;52495;52.208;5.158;2023-04-24T01:34:00;3.30;;;1.70;;
65757;SDS011;52495;52.208;5.158;2023-04-24T01:36:28;2.20;;;1.83;;
65757;SDS011;52495;52.208;5.158;2023-04-24T01:38:57;6.05;;;2.28;;
65757;SDS011;52495;52.208;5.158;2023-04-24T01:41:26;3.33;;;2.00;;
65757;SDS011;52495;52.208;5.158;2023-04-24T01:43:53;4.72;;;2.13;;
65757;SDS011;52495;52.208;5.158;2023-04-24T01:46:21;3.92;;;2.08;;
65757;SDS011;52495;52.208;5.158;2023-04-24T01:48:48;3.63;;;1.83;;
65757;SDS011;52495;52.208;5.158;2023-04-24T01:51:15;3.85;;;2.45;;
65757;SDS011;52495;52.208;5.158;2023-04-24T01:53:42;3.42;;;1.80;;
65757;SDS011;52495;52.208;5.158;2023-04-24T01:56:09;2.20;;;1.75;;
65757;SDS011;52495;52.208;5.158;2023-04-24T01:58:37;2.45;;;1.70;;
65757;SDS011;52495;52.208;5.158;2023-04-24T02:01:06;2.17;;;1.45;;
65757;SDS011;52495;52.208;5.158;2023-04-24T02:03:32;1.60;;;1.30;;
65757;SDS011;52495;52.208;5.158;2023-04-24T02:05:59;3.30;;;1.50;;
65757;SDS011;52495;52.208;5.158;2023-04-24T02:08:26;3.00;;;1.50;;
65757;SDS011;52495;52.208;5.158;2023-04-24T02:10:53;2.97;;;1.77;;
65757;SDS011;52495;52.208;5.158;2023-04-24T02:13:19;1.70;;;1.40;;
65757;SDS011;52495;52.208;5.158;2023-04-24T02:15:47;3.78;;;1.60;;
65757;SDS011;52495;52.208;5.158;2023-04-24T02:18:14;2.83;;;1.58;;
65757;SDS011;52495;52.208;5.158;2023-04-24T02:20:42;2.55;;;1.48;;
65757;SDS011;52495;52.208;5.158;2023-04-24T02:23:08;4.47;;;1.65;;
65757;SDS011;52495;52.208;5.158;2023-04-24T02:25:35;4.53;;;1.30;;
65757;SDS011;52495;52.208;5.158;2023-04-24T02:28:02;2.05;;;1.33;;
65757;SDS011;52495;52.208;5.158;2023-04-24T02:30:29;3.03;;;1.10;;
65757;SDS011;52495;52.208;5.158;2023-04-24T02:32:57;3.83;;;1.45;;
65757;SDS011;52495;52.208;5.158;2023-04-24T02:35:23;3.63;;;1.42;;
65757;SDS011;52495;52.208;5.158;2023-04-24T02:37:50;2.20;;;1.50;;
65757;SDS011;52495;52.208;5.158;2023-04-24T02:40:17;2.28;;;1.55;;
65757;SDS011;52495;52.208;5.158;2023-04-24T02:42:44;2.55;;;1.70;;
65757;SDS011;52495;52.208;5.158;2023-04-24T02:45:11;2.85;;;1.20;;
65757;SDS011;52495;52.208;5.158;2023-04-24T02:47:38;3.05;;;1.60;;
65757;SDS011;52495;52.208;5.158;2023-04-24T02:50:07;3.10;;;1.63;;
65757;SDS011;52495;52.208;5.158;2023-04-24T02:52:34;5.18;;;1.75;;
65757;SDS011;52495;52.208;5.158;2023-04-24T02:55:00;4.13;;;1.60;;
65757;SDS011;52495;52.208;5.158;2023-04-24T02:57:27;4.57;;;2.10;;
65757;SDS011;52495;52.208;5.158;2023-04-24T02:59:54;2.55;;;1.88;;
65757;SDS011;52495;52.208;5.158;2023-04-24T03:02:21;2.67;;;1.83;;
65757;SDS011;52495;52.208;5.158;2023-04-24T03:04:48;4.07;;;2.20;;
65757;SDS011;52495;52.208;5.158;2023-04-24T03:07:16;2.92;;;1.83;;
65757;SDS011;52495;52.208;5.158;2023-04-24T03:09:45;3.33;;;1.88;;
65757;SDS011;52495;52.208;5.158;2023-04-24T03:12:14;4.70;;;2.42;;
65757;SDS011;52495;52.208;5.158;2023-04-24T03:14:42;4.63;;;2.65;;
65757;SDS011;52495;52.208;5.158;2023-04-24T03:17:10;4.03;;;2.40;;
65757;SDS011;52495;52.208;5.158;2023-04-24T03:19:37;4.75;;;2.72;;
65757;SDS011;52495;52.208;5.158;2023-04-24T03:22:08;4.60;;;2.80;;
65757;SDS011;52495;52.208;5.158;2023-04-24T03:24:38;5.63;;;2.38;;
65757;SDS011;52495;52.208;5.158;2023-04-24T03:27:06;3.78;;;2.55;;
65757;SDS011;52495;52.208;5.158;2023-04-24T03:29:47;3.45;;;2.42;;
65757;SDS011;52495;52.208;5.158;2023-04-24T03:32:17;4.03;;;2.45;;
65757;SDS011;52495;52.208;5.158;2023-04-24T03:34:45;3.63;;;2.13;;
65757;SDS011;52495;52.208;5.158;2023-04-24T03:37:13;4.97;;;2.33;;
65757;SDS011;52495;52.208;5.158;2023-04-24T03:39:47;4.13;;;2.03;;
65757;SDS011;52495;52.208;5.158;2023-04-24T03:42:16;4.68;;;2.30;;
65757;SDS011;52495;52.208;5.158;2023-04-24T03:44:49;4.35;;;2.17;;
65757;SDS011;52495;52.208;5.158;2023-04-24T03:47:18;4.22;;;2.10;;
65757;SDS011;52495;52.208;5.158;2023-04-24T03:49:46;3.03;;;1.95;;
65757;SDS011;52495;52.208;5.158;2023-04-24T03:52:13;3.60;;;1.80;;
65757;SDS011;52495;52.208;5.158;2023-04-24T03:54:40;2.92;;;2.00;;
65757;SDS011;52495;52.208;5.158;2023-04-24T03:57:08;5.60;;;2.28;;
65757;SDS011;52495;52.208;5.158;2023-04-24T03:59:38;3.17;;;1.90;;
65757;SDS011;52495;52.208;5.158;2023-04-24T04:02:14;3.50;;;1.83;;
65757;SDS011;52495;52.208;5.158;2023-04-24T04:04:41;3.35;;;1.70;;
65757;SDS011;52495;52.208;5.158;2023-04-24T04:07:08;4.88;;;2.38;;
65757;SDS011;52495;52.208;5.158;2023-04-24T04:09:34;3.35;;;2.03;;
65757;SDS011;52495;52.208;5.158;2023-04-24T04:12:01;5.30;;;2.08;;
65757;SDS011;52495;52.208;5.158;2023-04-24T04:14:30;5.63;;;2.47;;
65757;SDS011;52495;52.208;5.158;2023-04-24T04:16:56;4.03;;;2.20;;
65757;SDS011;52495;52.208;5.158;2023-04-24T04:19:23;4.55;;;2.38;;
65757;SDS011;52495;52.208;5.158;2023-04-24T04:21:51;3.13;;;2.13;;
65757;SDS011;52495;52.208;5.158;2023-04-24T04:24:47;4.43;;;2.45;;
65757;SDS011;52495;52.208;5.158;2023-04-24T04:27:19;4.28;;;2.38;;
65757;SDS011;52495;52.208;5.158;2023-04-24T04:30:05;4.50;;;2.70;;
65757;SDS011;52495;52.208;5.158;2023-04-24T04:32:41;3.42;;;2.33;;
65757;SDS011;52495;52.208;5.158;2023-04-24T04:35:08;3.95;;;2.40;;
65757;SDS011;52495;52.208;5.158;2023-04-24T04:37:35;3.88;;;2.47;;
65757;SDS011;52495;52.208;5.158;2023-04-24T04:40:35;3.55;;;2.40;;
65757;SDS011;52495;52.208;5.158;2023-04-24T04:43:04;4.03;;;2.10;;
65757;SDS011;52495;52.208;5.158;2023-04-24T04:45:40;3.00;;;1.92;;
65757;SDS011;52495;52.208;5.158;2023-04-24T04:48:20;4.32;;;2.10;;
65757;SDS011;52495;52.208;5.158;2023-04-24T04:50:48;2.85;;;2.00;;
65757;SDS011;52495;52.208;5.158;2023-04-24T04:53:15;2.88;;;1.90;;
65757;SDS011;52495;52.208;5.158;2023-04-24T04:55:43;4.50;;;2.10;;
65757;SDS011;52495;52.208;5.158;2023-04-24T04:58:14;3.83;;;2.45;;
65757;SDS011;52495;52.208;5.158;2023-04-24T05:00:44;5.35;;;2.35;;
65757;SDS011;52495;52.208;5.158;2023-04-24T05:03:25;5.28;;;2.00;;
65757;SDS011;52495;52.208;5.158;2023-04-24T05:06:03;4.45;;;2.47;;
65757;SDS011;52495;52.208;5.158;2023-04-24T05:08:33;3.22;;;1.90;;
65757;SDS011;52495;52.208;5.158;2023-04-24T05:11:01;1.48;;;1.17;;
65757;SDS011;52495;52.208;5.158;2023-04-24T05:13:29;1.95;;;1.40;;
65757;SDS011;52495;52.208;5.158;2023-04-24T05:15:57;2.53;;;1.42;;
65757;SDS011;52495;52.208;5.158;2023-04-24T05:18:25;3.22;;;1.30;;
65757;SDS011;52495;52.208;5.158;2023-04-24T05:20:53;1.52;;;1.00;;
65757;SDS011;52495;52.208;5.158;2023-04-24T05:23:20;1.52;;;0.70;;
65757;SDS011;52495;52.208;5.158;2023-04-24T05:25:50;1.73;;;0.80;;
65757;SDS011;52495;52.208;5.158;2023-04-24T05:28:18;1.58;;;0.93;;
65757;SDS011;52495;52.208;5.158;2023-04-24T05:30:56;0.63;;;0.50;;
65757;SDS011;52495;52.208;5.158;2023-04-24T05:33:26;1.00;;;0.70;;
65757;SDS011;52495;52.208;5.158;2023-04-24T05:35:53;2.67;;;0.80;;
65757;SDS011;52495;52.208;5.158;2023-04-24T05:38:20;1.75;;;0.85;;
65757;SDS011;52495;52.208;5.158;2023-04-24T05:40:50;2.00;;;0.70;;
65757;SDS011;52495;52.208;5.158;2023-04-24T05:43:17;1.75;;;0.63;;
65757;SDS011;52495;52.208;5.158;2023-04-24T05:45:44;0.60;;;0.50;;
65757;SDS011;52495;52.208;5.158;2023-04-24T05:48:12;1.50;;;0.65;;
65757;SDS011;52495;52.208;5.158;2023-04-24T05:50:39;5.65;;;0.80;;
65757;SDS011;52495;52.208;5.158;2023-04-24T05:53:06;2.00;;;0.63;;
65757;SDS011;52495;52.208;5.158;2023-04-24T05:55:36;1.67;;;0.55;;
65757;SDS011;52495;52.208;5.158;2023-04-24T05:58:03;1.27;;;0.73;;
65757;SDS011;52495;52.208;5.158;2023-04-24T06:00:30;0.80;;;0.65;;
65757;SDS011;52495;52.208;5.158;2023-04-24T06:03:03;3.97;;;1.10;;
65757;SDS011;52495;52.208;5.158;2023-04-24T06:05:31;3.50;;;1.33;;
65757;SDS011;52495;52.208;5.158;2023-04-24T06:07:58;3.03;;;1.83;;
65757;SDS011;52495;52.208;5.158;2023-04-24T06:10:30;3.25;;;1.45;;
65757;SDS011;52495;52.208;5.158;2023-04-24T06:12:57;5.15;;;3.00;;
65757;SDS011;52495;52.208;5.158;2023-04-24T06:15:26;7.88;;;4.32;;
65757;SDS011;52495;52.208;5.158;2023-04-24T06:17:57;10.93;;;6.90;;
65757;SDS011;52495;52.208;5.158;2023-04-24T06:20:24;10.50;;;6.90;;
65757;SDS011;52495;52.208;5.158;2023-04-24T06:22:53;11.30;;;6.80;;
65757;SDS011;52495;52.208;5.158;2023-04-24T06:25:19;12.13;;;7.15;;
65757;SDS011;52495;52.208;5.158;2023-04-24T06:27:46;14.57;;;8.23;;
65757;SDS011;52495;52.208;5.158;2023-04-24T06:30:13;11.90;;;7.13;;
65757;SDS011;52495;52.208;5.158;2023-04-24T06:32:40;16.98;;;9.27;;
65757;SDS011;52495;52.208;5.158;2023-04-24T06:35:07;16.65;;;9.18;;
65757;SDS011;52495;52.208;5.158;2023-04-24T06:37:35;17.38;;;10.38;;
65757;SDS011;52495;52.208;5.158;2023-04-24T06:40:03;15.77;;;8.77;;
65757;SDS011;52495;52.208;5.158;2023-04-24T06:42:31;14.90;;;9.60;;
65757;SDS011;52495;52.208;5.158;2023-04-24T06:44:58;15.13;;;9.93;;
65757;SDS011;52495;52.208;5.158;2023-04-24T06:47:25;14.38;;;9.38;;
65757;SDS011;52495;52.208;5.158;2023-04-24T06:49:52;15.70;;;8.10;;
65757;SDS011;52495;52.208;5.158;2023-04-24T06:52:20;18.98;;;9.70;;
65757;SDS011;52495;52.208;5.158;2023-04-24T06:54:47;16.55;;;8.40;;
65757;SDS011;52495;52.208;5.158;2023-04-24T06:57:15;15.70;;;7.95;;
65757;SDS011;52495;52.208;5.158;2023-04-24T06:59:42;14.65;;;7.57;;
65757;SDS011;52495;52.208;5.158;2023-04-24T07:02:09;15.88;;;8.80;;
65757;SDS011;52495;52.208;5.158;2023-04-24T07:04:35;19.13;;;10.32;;
65757;SDS011;52495;52.208;5.158;2023-04-24T07:07:02;12.98;;;7.93;;
65757;SDS011;52495;52.208;5.158;2023-04-24T07:09:30;18.92;;;7.65;;
65757;SDS011;52495;52.208;5.158;2023-04-24T07:11:57;18.00;;;7.85;;
65757;SDS011;52495;52.208;5.158;2023-04-24T07:14:25;15.13;;;7.63;;
65757;SDS011;52495;52.208;5.158;2023-04-24T07:16:52;12.88;;;8.15;;
65757;SDS011;52495;52.208;5.158;2023-04-24T07:19:19;17.00;;;8.75;;
65757;SDS011;52495;52.208;5.158;2023-04-24T07:21:45;18.27;;;7.88;;
65757;SDS011;52495;52.208;5.158;2023-04-24T07:24:12;17.60;;;7.50;;
65757;SDS011;52495;52.208;5.158;2023-04-24T07:26:39;16.98;;;8.02;;
65757;SDS011;52495;52.208;5.158;2023-04-24T07:29:06;18.10;;;7.50;;
65757;SDS011;52495;52.208;5.158;2023-04-24T07:31:34;19.33;;;7.53;;
65757;SDS011;52495;52.208;5.158;2023-04-24T07:34:01;16.27;;;7.90;;
65757;SDS011;52495;52.208;5.158;2023-04-24T07:36:28;15.90;;;8.40;;
65757;SDS011;52495;52.208;5.158;2023-04-24T07:38:55;20.45;;;8.75;;
65757;SDS011;52495;52.208;5.158;2023-04-24T07:41:25;11.73;;;6.65;;
65757;SDS011;52495;52.208;5.158;2023-04-24T07:43:53;22.02;;;8.15;;
65757;SDS011;52495;52.208;5.158;2023-04-24T07:46:20;26.08;;;7.88;;
65757;SDS011;52495;52.208;5.158;2023-04-24T07:48:49;21.05;;;7.47;;
65757;SDS011;52495;52.208;5.158;2023-04-24T07:51:17;19.95;;;6.35;;
65757;SDS011;52495;52.208;5.158;2023-04-24T07:53:44;15.07;;;6.18;;
65757;SDS011;52495;52.208;5.158;2023-04-24T07:56:10;15.15;;;6.05;;
65757;SDS011;52495;52.208;5.158;2023-04-24T07:58:37;19.05;;;5.82;;
65757;SDS011;52495;52.208;5.158;2023-04-24T08:01:04;15.35;;;5.68;;
65757;SDS011;52495;52.208;5.158;2023-04-24T08:03:31;16.13;;;5.22;;
65757;SDS011;52495;52.208;5.158;2023-04-24T08:05:59;15.20;;;5.03;;
65757;SDS011;52495;52.208;5.158;2023-04-24T08:08:26;22.27;;;5.25;;
65757;SDS011;52495;52.208;5.158;2023-04-24T08:10:53;14.10;;;4.70;;
65757;SDS011;52495;52.208;5.158;2023-04-24T08:13:20;13.15;;;4.05;;
65757;SDS011;52495;52.208;5.158;2023-04-24T08:15:47;13.20;;;4.57;;
65757;SDS011;52495;52.208;5.158;2023-04-24T08:18:14;15.05;;;3.90;;
65757;SDS011;52495;52.208;5.158;2023-04-24T08:20:41;15.82;;;4.72;;
65757;SDS011;52495;52.208;5.158;2023-04-24T08:23:09;16.40;;;4.03;;
65757;SDS011;52495;52.208;5.158;2023-04-24T08:25:36;11.35;;;3.10;;
65757;SDS011;52495;52.208;5.158;2023-04-24T08:28:05;17.42;;;4.30;;
65757;SDS011;52495;52.208;5.158;2023-04-24T08:30:32;14.43;;;4.22;;
65757;SDS011;52495;52.208;5.158;2023-04-24T08:32:59;13.30;;;4.00;;
65757;SDS011;52495;52.208;5.158;2023-04-24T08:35:26;10.90;;;2.97;;
65757;SDS011;52495;52.208;5.158;2023-04-24T08:37:53;12.15;;;2.97;;
65757;SDS011;52495;52.208;5.158;2023-04-24T08:40:22;12.70;;;2.75;;
65757;SDS011;52495;52.208;5.158;2023-04-24T08:42:54;15.45;;;3.50;;
65757;SDS011;52495;52.208;5.158;2023-04-24T08:45:23;10.15;;;2.97;;
65757;SDS011;52495;52.208;5.158;2023-04-24T08:47:52;10.77;;;2.85;;
65757;SDS011;52495;52.208;5.158;2023-04-24T08:50:19;17.27;;;3.28;;
65757;SDS011;52495;52.208;5.158;2023-04-24T08:52:47;11.43;;;2.90;;
65757;SDS011;52495;52.208;5.158;2023-04-24T08:55:16;10.80;;;3.22;;
65757;SDS011;52495;52.208;5.158;2023-04-24T08:57:45;15.43;;;2.63;;
65757;SDS011;52495;52.208;5.158;2023-04-24T09:00:16;10.88;;;2.97;;
65757;SDS011;52495;52.208;5.158;2023-04-24T09:02:44;14.05;;;2.97;;
65757;SDS011;52495;52.208;5.158;2023-04-24T09:05:13;15.05;;;3.20;;
65757;SDS011;52495;52.208;5.158;2023-04-24T09:07:41;9.88;;;3.08;;
65757;SDS011;52495;52.208;5.158;2023-04-24T09:10:12;14.88;;;2.83;;
65757;SDS011;52495;52.208;5.158;2023-04-24T09:12:40;9.48;;;2.85;;
65757;SDS011;52495;52.208;5.158;2023-04-24T09:15:09;5.47;;;2.35;;
65757;SDS011;52495;52.208;5.158;2023-04-24T09:17:37;8.48;;;2.65;;
65757;SDS011;52495;52.208;5.158;2023-04-24T09:20:05;8.98;;;2.50;;
65757;SDS011;52495;52.208;5.158;2023-04-24T09:22:32;12.27;;;3.08;;
65757;SDS011;52495;52.208;5.158;2023-04-24T09:24:59;9.70;;;2.88;;
65757;SDS011;52495;52.208;5.158;2023-04-24T09:27:30;7.35;;;2.63;;
65757;SDS011;52495;52.208;5.158;2023-04-24T09:29:57;19.23;;;3.90;;
65757;SDS011;52495;52.208;5.158;2023-04-24T09:32:26;12.75;;;3.22;;
65757;SDS011;52495;52.208;5.158;2023-04-24T09:35:08;9.10;;;2.45;;
65757;SDS011;52495;52.208;5.158;2023-04-24T09:37:37;12.95;;;2.78;;
65757;SDS011;52495;52.208;5.158;2023-04-24T09:40:08;13.68;;;2.55;;
65757;SDS011;52495;52.208;5.158;2023-04-24T09:42:37;6.25;;;2.20;;
65757;SDS011;52495;52.208;5.158;2023-04-24T09:45:04;16.63;;;3.70;;
65757;SDS011;52495;52.208;5.158;2023-04-24T09:47:37;9.52;;;2.97;;
65757;SDS011;52495;52.208;5.158;2023-04-24T09:50:11;11.85;;;3.15;;
65757;SDS011;52495;52.208;5.158;2023-04-24T09:52:40;8.55;;;3.15;;
65757;SDS011;52495;52.208;5.158;2023-04-24T09:55:18;9.98;;;3.38;;
65757;SDS011;52495;52.208;5.158;2023-04-24T09:57:47;9.15;;;3.75;;
65757;SDS011;52495;52.208;5.158;2023-04-24T10:00:17;11.88;;;4.13;;
65757;SDS011;52495;52.208;5.158;2023-04-24T10:02:50;10.63;;;4.50;;
65757;SDS011;52495;52.208;5.158;2023-04-24T10:05:22;15.82;;;6.95;;
65757;SDS011;52495;52.208;5.158;2023-04-24T10:07:50;12.35;;;4.47;;
65757;SDS011;52495;52.208;5.158;2023-04-24T10:10:17;6.00;;;2.13;;
65757;SDS011;52495;52.208;5.158;2023-04-24T10:12:44;11.05;;;2.97;;
65757;SDS011;52495;52.208;5.158;2023-04-24T10:15:12;6.40;;;2.00;;
65757;SDS011;52495;52.208;5.158;2023-04-24T10:17:40;9.00;;;1.88;;
65757;SDS011;52495;52.208;5.158;2023-04-24T10:20:09;5.85;;;2.60;;
65757;SDS011;52495;52.208;5.158;2023-04-24T10:22:36;7.97;;;2.63;;
65757;SDS011;52495;52.208;5.158;2023-04-24T10:25:04;6.50;;;1.55;;
65757;SDS011;52495;52.208;5.158;2023-04-24T10:27:32;6.28;;;1.85;;
65757;SDS011;52495;52.208;5.158;2023-04-24T10:30:01;7.20;;;1.95;;
65757;SDS011;52495;52.208;5.158;2023-04-24T10:32:28;5.50;;;1.70;;
65757;SDS011;52495;52.208;5.158;2023-04-24T10:34:55;5.32;;;1.70;;
65757;SDS011;52495;52.208;5.158;2023-04-24T10:37:23;8.00;;;2.05;;
65757;SDS011;52495;52.208;5.158;2023-04-24T10:39:52;5.65;;;1.70;;
65757;SDS011;52495;52.208;5.158;2023-04-24T10:42:19;6.85;;;1.70;;
65757;SDS011;52495;52.208;5.158;2023-04-24T10:44:47;3.92;;;1.27;;
65757;SDS011;52495;52.208;5.158;2023-04-24T10:47:14;6.03;;;1.70;;
65757;SDS011;52495;52.208;5.158;2023-04-24T10:49:40;5.60;;;1.65;;
65757;SDS011;52495;52.208;5.158;2023-04-24T10:52:08;6.53;;;1.75;;
65757;SDS011;52495;52.208;5.158;2023-04-24T10:54:41;9.45;;;2.08;;
65757;SDS011;52495;52.208;5.158;2023-04-24T10:57:26;7.20;;;2.28;;
65757;SDS011;52495;52.208;5.158;2023-04-24T11:00:15;6.50;;;1.55;;
65757;SDS011;52495;52.208;5.158;2023-04-24T11:02:45;5.95;;;1.75;;
65757;SDS011;52495;52.208;5.158;2023-04-24T11:05:18;10.02;;;1.70;;
65757;SDS011;52495;52.208;5.158;2023-04-24T11:10:40;5.40;;;1.90;;
65757;SDS011;52495;52.208;5.158;2023-04-24T11:13:07;5.20;;;1.10;;
65757;SDS011;52495;52.208;5.158;2023-04-24T11:15:34;3.40;;;1.60;;
65757;SDS011;52495;52.208;5.158;2023-04-24T11:18:01;3.35;;;1.00;;
65757;SDS011;52495;52.208;5.158;2023-04-24T11:20:28;2.38;;;0.80;;
65757;SDS011;52495;52.208;5.158;2023-04-24T11:22:55;2.50;;;1.10;;
65757;SDS011;52495;52.208;5.158;2023-04-24T11:25:30;2.35;;;0.90;;
65757;SDS011;52495;52.208;5.158;2023-04-24T11:28:04;3.83;;;1.10;;
65757;SDS011;52495;52.208;5.158;2023-04-24T11:30:32;13.05;;;2.35;;
65757;SDS011;52495;52.208;5.158;2023-04-24T11:33:03;1.33;;;0.80;;
65757;SDS011;52495;52.208;5.158;2023-04-24T11:35:34;4.32;;;1.10;;
65757;SDS011;52495;52.208;5.158;2023-04-24T11:38:03;3.08;;;0.82;;
65757;SDS011;52495;52.208;5.158;2023-04-24T11:40:30;7.53;;;2.40;;
65757;SDS011;52495;52.208;5.158;2023-04-24T11:42:59;3.97;;;1.17;;
65757;SDS011;52495;52.208;5.158;2023-04-24T11:45:29;7.10;;;1.40;;
65757;SDS011;52495;52.208;5.158;2023-04-24T11:47:58;5.45;;;1.42;;
65757;SDS011;52495;52.208;5.158;2023-04-24T11:50:25;3.72;;;1.58;;
65757;SDS011;52495;52.208;5.158;2023-04-24T11:52:54;5.22;;;1.65;;
65757;SDS011;52495;52.208;5.158;2023-04-24T11:55:28;9.50;;;1.65;;
65757;SDS011;52495;52.208;5.158;2023-04-24T11:57:55;8.68;;;2.30;;
65757;SDS011;52495;52.208;5.158;2023-04-24T12:00:24;6.05;;;1.40;;
65757;SDS011;52495;52.208;5.158;2023-04-24T12:03:02;5.63;;;1.50;;
65757;SDS011;52495;52.208;5.158;2023-04-24T12:05:32;5.72;;;1.95;;
65757;SDS011;52495;52.208;5.158;2023-04-24T12:07:59;6.72;;;1.90;;
65757;SDS011;52495;52.208;5.158;2023-04-24T12:10:27;6.25;;;1.90;;
65757;SDS011;52495;52.208;5.158;2023-04-24T12:12:55;3.90;;;1.20;;
65757;SDS011;52495;52.208;5.158;2023-04-24T12:15:25;7.50;;;2.35;;
65757;SDS011;52495;52.208;5.158;2023-04-24T12:17:55;5.80;;;1.70;;
65757;SDS011;52495;52.208;5.158;2023-04-24T12:20:26;6.95;;;2.30;;
65757;SDS011;52495;52.208;5.158;2023-04-24T12:22:55;9.35;;;2.30;;
65757;SDS011;52495;52.208;5.158;2023-04-24T12:25:23;8.55;;;2.10;;
65757;SDS011;52495;52.208;5.158;2023-04-24T12:27:52;11.48;;;2.72;;
65757;SDS011;52495;52.208;5.158;2023-04-24T12:30:20;6.53;;;1.98;;
65757;SDS011;52495;52.208;5.158;2023-04-24T12:32:48;13.18;;;2.28;;
65757;SDS011;52495;52.208;5.158;2023-04-24T12:35:21;10.55;;;2.22;;
65757;SDS011;52495;52.208;5.158;2023-04-24T12:37:49;9.50;;;1.90;;
65757;SDS011;52495;52.208;5.158;2023-04-24T12:40:16;8.93;;;2.47;;
65757;SDS011;52495;52.208;5.158;2023-04-24T12:42:45;9.98;;;3.55;;
65757;SDS011;52495;52.208;5.158;2023-04-24T12:45:14;12.30;;;2.33;;
65757;SDS011;52495;52.208;5.158;2023-04-24T12:47:42;15.50;;;2.97;;
65757;SDS011;52495;52.208;5.158;2023-04-24T12:50:10;11.80;;;3.05;;
65757;SDS011;52495;52.208;5.158;2023-04-24T12:52:40;11.55;;;3.08;;
65757;SDS011;52495;52.208;5.158;2023-04-24T12:55:07;13.75;;;3.70;;
65757;SDS011;52495;52.208;5.158;2023-04-24T12:57:35;17.08;;;4.15;;
65757;SDS011;52495;52.208;5.158;2023-04-24T13:00:02;13.88;;;3.95;;
65757;SDS011;52495;52.208;5.158;2023-04-24T13:02:31;9.50;;;3.45;;
65757;SDS011;52495;52.208;5.158;2023-04-24T13:04:58;11.23;;;3.47;;
65757;SDS011;52495;52.208;5.158;2023-04-24T13:07:25;12.25;;;2.92;;
65757;SDS011;52495;52.208;5.158;2023-04-24T13:09:54;11.90;;;3.08;;
65757;SDS011;52495;52.208;5.158;2023-04-24T13:12:22;14.73;;;2.92;;
65757;SDS011;52495;52.208;5.158;2023-04-24T13:14:50;11.73;;;2.70;;
65757;SDS011;52495;52.208;5.158;2023-04-24T13:17:17;12.77;;;2.95;;
65757;SDS011;52495;52.208;5.158;2023-04-24T13:19:44;13.57;;;3.17;;
65757;SDS011;52495;52.208;5.158;2023-04-24T13:22:11;11.15;;;2.83;;
65757;SDS011;52495;52.208;5.158;2023-04-24T13:24:38;10.95;;;3.20;;
65757;SDS011;52495;52.208;5.158;2023-04-24T13:27:08;11.50;;;3.08;;
65757;SDS011;52495;52.208;5.158;2023-04-24T13:29:35;11.55;;;3.28;;
65757;SDS011;52495;52.208;5.158;2023-04-24T13:32:02;15.40;;;3.05;;
65757;SDS011;52495;52.208;5.158;2023-04-24T13:34:29;13.57;;;3.10;;
65757;SDS011;52495;52.208;5.158;2023-04-24T13:36:56;15.35;;;3.45;;
65757;SDS011;52495;52.208;5.158;2023-04-24T13:39:24;14.85;;;3.10;;
65757;SDS011;52495;52.208;5.158;2023-04-24T13:41:51;11.27;;;2.90;;
65757;SDS011;52495;52.208;5.158;2023-04-24T13:44:20;11.50;;;3.03;;
65757;SDS011;52495;52.208;5.158;2023-04-24T13:46:48;14.98;;;3.22;;
65757;SDS011;52495;52.208;5.158;2023-04-24T13:49:17;13.80;;;3.53;;
65757;SDS011;52495;52.208;5.158;2023-04-24T13:51:44;13.57;;;3.55;;
65757;SDS011;52495;52.208;5.158;2023-04-24T13:54:12;12.70;;;3.65;;
65757;SDS011;52495;52.208;5.158;2023-04-24T13:56:39;12.00;;;3.17;;
65757;SDS011;52495;52.208;5.158;2023-04-24T13:59:06;12.43;;;3.60;;
65757;SDS011;52495;52.208;5.158;2023-04-24T14:01:35;15.18;;;3.50;;
65757;SDS011;52495;52.208;5.158;2023-04-24T14:04:01;15.63;;;3.97;;
65757;SDS011;52495;52.208;5.158;2023-04-24T14:06:28;18.10;;;4.55;;
65757;SDS011;52495;52.208;5.158;2023-04-24T14:08:56;13.20;;;4.22;;
65757;SDS011;52495;52.208;5.158;2023-04-24T14:11:23;14.95;;;4.35;;
65757;SDS011;52495;52.208;5.158;2023-04-24T14:13:50;9.40;;;3.35;;
65757;SDS011;52495;52.208;5.158;2023-04-24T14:16:16;14.70;;;3.55;;
65757;SDS011;52495;52.208;5.158;2023-04-24T14:18:45;12.43;;;3.25;;
65757;SDS011;52495;52.208;5.158;2023-04-24T14:21:12;13.75;;;3.42;;
65757;SDS011;52495;52.208;5.158;2023-04-24T14:23:38;9.18;;;2.92;;
65757;SDS011;52495;52.208;5.158;2023-04-24T14:26:05;10.05;;;3.65;;
65757;SDS011;52495;52.208;5.158;2023-04-24T14:28:32;12.20;;;3.83;;
65757;SDS011;52495;52.208;5.158;2023-04-24T14:30:59;12.18;;;3.65;;
65757;SDS011;52495;52.208;5.158;2023-04-24T14:33:25;10.00;;;2.90;;
65757;SDS011;52495;52.208;5.158;2023-04-24T14:35:53;12.27;;;3.13;;
65757;SDS011;52495;52.208;5.158;2023-04-24T14:38:21;10.57;;;3.10;;
65757;SDS011;52495;52.208;5.158;2023-04-24T14:40:48;9.73;;;3.08;;
65757;SDS011;52495;52.208;5.158;2023-04-24T14:43:15;12.70;;;3.53;;
65757;SDS011;52495;52.208;5.158;2023-04-24T14:45:42;8.05;;;2.58;;
65757;SDS011;52495;52.208;5.158;2023-04-24T14:48:09;11.30;;;3.42;;
65757;SDS011;52495;52.208;5.158;2023-04-24T14:50:36;13.15;;;2.75;;
65757;SDS011;52495;52.208;5.158;2023-04-24T14:53:04;12.55;;;3.45;;